createdAt,value
2019-01-06T00:05:33.502Z,8.87
2019-01-06T00:08:22.249Z,8.85
2019-01-06T00:13:51.795Z,8.87
2019-01-06T00:16:59.801Z,8.85
2019-01-06T00:25:30.678Z,8.80
2019-01-06T00:33:56.542Z,8.83
2019-01-06T00:40:03.580Z,8.83
2019-01-06T00:43:11.666Z,8.88
2019-01-06T00:46:00.439Z,8.88
2019-01-06T00:51:59.680Z,8.85
2019-01-06T00:54:48.356Z,8.84
2019-01-06T00:57:37.055Z,8.85
2019-01-06T01:03:46.735Z,8.82
2019-01-06T01:06:35.479Z,8.88
2019-01-06T01:12:59.801Z,8.92
2019-01-06T01:16:01.031Z,8.91
2019-01-06T01:18:49.491Z,8.91
2019-01-06T01:21:38.255Z,8.89
2019-01-06T01:27:27.855Z,8.94
2019-01-06T01:30:17.998Z,8.93
2019-01-06T01:35:56.767Z,8.91
2019-01-06T01:44:10.927Z,8.93
2019-01-06T01:46:59.924Z,8.92
2019-01-06T01:49:48.482Z,8.94
2019-01-06T01:55:19.095Z,8.91
2019-01-06T01:58:07.746Z,8.91
2019-01-06T02:00:56.518Z,8.93
2019-01-06T02:03:44.991Z,8.93
2019-01-06T02:06:28.959Z,8.88
2019-01-06T02:09:17.724Z,8.88
2019-01-06T02:14:45.835Z,8.90
2019-01-06T02:17:31.789Z,8.95
2019-01-06T02:20:20.459Z,8.95
2019-01-06T02:23:09.235Z,8.89
2019-01-06T02:28:47.722Z,8.87
2019-01-06T02:34:31.861Z,8.85
2019-01-06T02:40:28.762Z,8.90
2019-01-06T02:45:57.990Z,8.91
2019-01-06T02:48:41.973Z,8.90
2019-01-06T02:51:42.646Z,8.91
2019-01-06T02:54:31.429Z,8.91
2019-01-06T02:57:19.922Z,8.93
2019-01-06T03:00:08.674Z,8.93
2019-01-06T03:05:37.844Z,8.92
2019-01-06T03:08:26.623Z,8.87
2019-01-06T03:11:15.090Z,8.87
2019-01-06T03:14:04.957Z,8.88
2019-01-06T03:16:53.739Z,8.92
2019-01-06T03:19:43.076Z,8.86
2019-01-06T03:22:51.018Z,8.82
2019-01-06T03:25:39.682Z,8.85
2019-01-06T03:28:28.241Z,8.85
2019-01-06T03:31:16.929Z,8.85
2019-01-06T03:34:05.947Z,8.85
2019-01-06T03:36:54.396Z,8.85
2019-01-06T03:39:42.876Z,8.84
2019-01-06T03:42:31.338Z,8.89
2019-01-06T03:45:19.832Z,8.93
2019-01-06T03:48:08.303Z,8.93
2019-01-06T03:50:56.799Z,8.94
2019-01-06T03:56:25.235Z,8.91
2019-01-06T04:04:50.886Z,8.92
2019-01-06T04:07:39.342Z,8.92
2019-01-06T04:10:47.253Z,8.91
2019-01-06T04:13:30.488Z,8.84
2019-01-06T04:16:18.978Z,8.84
2019-01-06T04:21:48.206Z,8.89
2019-01-06T04:24:36.976Z,8.86
2019-01-06T04:27:25.442Z,8.89
2019-01-06T04:30:14.266Z,8.91
2019-01-06T04:33:22.442Z,8.90
2019-01-06T04:36:11.208Z,8.89
2019-01-06T04:39:00.419Z,8.87
2019-01-06T04:41:50.739Z,8.90
2019-01-06T04:50:15.492Z,8.86
2019-01-06T04:56:00.457Z,8.89
2019-01-06T05:02:00.365Z,8.89
2019-01-06T05:07:41.467Z,8.93
2019-01-06T05:10:30.259Z,8.92
2019-01-06T05:13:18.729Z,8.91
2019-01-06T05:21:43.976Z,8.82
2019-01-06T05:24:32.463Z,8.81
2019-01-06T05:27:20.935Z,8.82
2019-01-06T05:30:09.693Z,8.79
2019-01-06T05:32:58.164Z,8.81
2019-01-06T05:35:46.643Z,8.81
2019-01-06T05:41:39.571Z,8.79
2019-01-06T05:44:40.851Z,8.79
2019-01-06T05:47:27.533Z,8.79
2019-01-06T05:50:16.311Z,8.79
2019-01-06T05:52:53.171Z,8.80
2019-01-06T05:55:41.656Z,8.81
2019-01-06T06:01:28.460Z,8.87
2019-01-06T06:25:32.554Z,8.79
2019-01-06T06:28:21.318Z,8.80
2019-01-06T06:36:52.298Z,8.83
2019-01-06T08:19:12.012Z,8.79
2019-01-06T08:24:41.504Z,8.75
2019-01-06T08:27:29.982Z,8.75
2019-01-06T08:30:18.762Z,8.80
2019-01-06T08:33:07.798Z,8.80
2019-01-06T08:41:34.830Z,8.82
2019-01-06T08:47:03.927Z,8.87
2019-01-06T08:49:52.721Z,8.91
2019-01-06T10:02:52.905Z,8.92
2019-01-06T10:05:41.757Z,8.88
2019-01-06T10:08:30.234Z,8.91
2019-01-06T10:11:18.741Z,9.03
2019-01-06T10:16:47.284Z,9.14
2019-01-06T10:19:35.985Z,9.20
2019-01-06T10:22:24.767Z,9.24
2019-01-06T10:25:23.610Z,9.33
2019-01-06T10:28:12.338Z,9.33
2019-01-06T10:31:01.331Z,9.39
2019-01-06T10:33:50.144Z,9.32
2019-01-06T10:36:38.820Z,9.32
2019-01-06T10:42:23.027Z,9.24
2019-01-06T10:45:11.542Z,9.25
2019-01-06T10:48:01.208Z,9.27
2019-01-06T10:51:09.342Z,9.24
2019-01-06T11:16:49.038Z,9.23
2019-01-06T11:19:37.836Z,9.21
2019-01-06T11:22:26.475Z,9.15
2019-01-06T11:25:15.169Z,9.15
2019-01-06T11:28:01.507Z,9.19
2019-01-06T11:30:32.605Z,9.23
2019-01-06T11:33:21.871Z,9.23
2019-01-06T11:50:19.967Z,9.36
2019-01-06T11:55:49.306Z,9.39
2019-01-06T12:01:33.680Z,9.38
2019-01-06T12:04:22.154Z,9.38
2019-01-06T12:07:10.647Z,9.42
2019-01-06T12:09:59.140Z,9.43
2019-01-06T12:12:47.621Z,9.46
2019-01-06T12:15:36.085Z,9.49
2019-01-06T12:24:01.334Z,9.54
2019-01-06T12:26:50.080Z,9.58
2019-01-06T12:29:38.570Z,9.63
2019-01-06T12:32:27.223Z,9.64
2019-01-06T12:35:15.997Z,9.61
2019-01-06T12:40:43.966Z,9.56
2019-01-06T12:43:32.467Z,9.55
2019-01-06T12:49:17.430Z,9.54
2019-01-06T12:52:06.243Z,9.54
2019-01-06T12:54:55.017Z,9.48
2019-01-06T13:00:33.861Z,9.47
2019-01-06T13:03:22.370Z,9.47
2019-01-06T13:06:11.457Z,9.46
2019-01-06T13:11:57.369Z,9.41
2019-01-06T13:14:46.347Z,9.41
2019-01-06T13:29:19.148Z,9.43
2019-01-06T13:32:07.608Z,9.41
2019-01-06T13:37:36.565Z,9.40
2019-01-06T13:43:27.259Z,9.35
2019-01-06T13:46:16.060Z,9.31
2019-01-06T13:49:04.823Z,9.29
2019-01-06T13:51:53.433Z,9.25
2019-01-06T13:54:41.923Z,9.17
2019-01-06T13:57:30.447Z,9.19
2019-01-06T14:00:18.953Z,9.18
2019-01-06T14:03:07.639Z,9.15
2019-01-06T14:05:56.435Z,9.19
2019-01-06T14:08:45.178Z,9.17
2019-01-06T14:11:33.679Z,9.15
2019-01-06T14:14:22.295Z,9.17
2019-01-06T14:17:31.976Z,9.19
2019-01-06T14:23:15.843Z,9.14
